Time;durP1;ratioP1;P1;durP2;ratioP2;P2;SDS_P1;SDS_P2;PMS_P1;PMS_P2;Temp;Humidity;BMP_temperature;BMP_pressure;BME280_temperature;BME280_humidity;BME280_pressure;Samples;Min_cycle;Max_cycle;Signal;HPM_P1;HPM_P2
2022/03/19 00:01:28;;;;;;;31.20;16.00;;;;;;;-5.06;64.00;103299.46;84863;1324;22595;-70
2022/03/19 00:03:36;;;;;;;28.40;14.80;;;;;;;-5.08;63.90;103298.05;84851;1325;25307;-70
2022/03/19 00:05:44;;;;;;;24.30;13.30;;;;;;;-5.10;63.95;103296.21;84155;1322;1003545;-76
2022/03/19 00:07:55;;;;;;;31.80;15.30;;;;;;;-5.11;64.42;103297.20;84839;1324;24135;-77
2022/03/19 00:10:06;;;;;;;33.90;16.10;;;;;;;-5.10;64.40;103296.44;84570;1326;309838;-70
2022/03/19 00:12:15;;;;;;;35.50;17.80;;;;;;;-5.07;64.28;103295.77;84761;1327;26488;-70
2022/03/19 00:14:27;;;;;;;28.40;15.60;;;;;;;-5.06;64.45;103298.58;84883;1325;22642;-70
2022/03/19 00:16:38;;;;;;;33.90;15.70;;;;;;;-5.07;64.39;103296.80;84832;1325;22638;-70
2022/03/19 00:18:49;;;;;;;30.90;16.40;;;;;;;-5.09;64.30;103294.23;84832;1324;22580;-70
2022/03/19 00:20:58;;;;;;;30.90;15.80;;;;;;;-5.12;64.45;103292.33;84853;1324;22641;-70
2022/03/19 00:23:06;;;;;;;34.20;15.30;;;;;;;-5.17;64.45;103288.95;84833;1324;24176;-70
2022/03/19 00:25:15;;;;;;;29.20;16.60;;;;;;;-5.19;64.44;103286.91;84842;1324;22583;-75
2022/03/19 00:27:23;;;;;;;34.60;17.40;;;;;;;-5.22;64.63;103284.67;84126;1324;1003798;-76
2022/03/19 00:29:32;;;;;;;33.70;15.80;;;;;;;-5.26;64.61;103281.65;84148;1324;1003472;-70
2022/03/19 00:31:40;;;;;;;34.90;14.90;;;;;;;-5.29;64.60;103284.15;84816;1324;22669;-70
2022/03/19 00:33:49;;;;;;;27.50;15.80;;;;;;;-5.34;64.84;103284.84;84828;1328;24331;-71
2022/03/19 00:35:59;;;;;;;28.20;15.60;;;;;;;-5.36;64.87;103286.16;84448;1324;1003398;-75
2022/03/19 00:38:07;;;;;;;33.90;15.80;;;;;;;-5.39;64.69;103287.83;84818;1324;24159;-76
2022/03/19 00:40:18;;;;;;;29.30;16.00;;;;;;;-5.43;64.80;103285.17;84850;1325;22734;-71
2022/03/19 00:42:24;;;;;;;;;;;;;;;-5.49;64.78;103286.45;84151;1324;1003623;-70
2022/03/19 00:44:33;;;;;;;25.50;14.20;;;;;;;-5.55;65.01;103285.83;84857;1324;24112;-76
2022/03/19 00:46:43;;;;;;;35.80;15.20;;;;;;;-5.57;65.07;103284.77;84145;1325;1003179;-76
2022/03/19 00:48:55;;;;;;;26.10;15.40;;;;;;;-5.59;65.30;103281.96;84854;1324;23068;-76
2022/03/19 00:51:04;;;;;;;32.80;15.60;;;;;;;-5.58;65.63;103286.27;84846;1324;23942;-76
2022/03/19 00:53:12;;;;;;;28.20;14.40;;;;;;;-5.56;66.03;103285.58;84849;1324;22563;-76
2022/03/19 00:55:20;;;;;;;26.70;15.90;;;;;;;-5.55;66.09;103283.27;84826;1325;22585;-69
2022/03/19 00:57:39;;;;;;;24.00;13.90;;;;;;;-5.53;66.17;103281.88;84844;1324;24029;-69
2022/03/19 00:59:47;;;;;;;27.70;14.10;;;;;;;-5.51;66.51;103280.85;84837;1327;22894;-70
2022/03/19 01:01:57;;;;;;;30.60;14.90;;;;;;;-5.49;66.89;103277.73;84842;1328;25323;-70
2022/03/19 01:04:10;;;;;;;31.50;15.90;;;;;;;-5.49;67.12;103272.28;84824;1325;22630;-75
2022/03/19 01:06:21;;;;;;;28.80;15.00;;;;;;;-5.51;67.03;103269.47;84836;1325;22597;-77
2022/03/19 01:08:30;;;;;;;29.90;16.70;;;;;;;-5.52;67.20;103266.97;84857;1322;22599;-76
2022/03/19 01:10:39;;;;;;;31.80;15.40;;;;;;;-5.52;67.29;103261.16;84866;1324;22612;-76
2022/03/19 01:12:48;;;;;;;31.40;15.80;;;;;;;-5.52;67.36;103261.66;84163;1324;1002721;-76
2022/03/19 01:15:00;;;;;;;42.00;16.70;;;;;;;-5.53;67.59;103266.04;84077;1325;1003261;-76
2022/03/19 01:17:12;;;;;;;28.20;15.70;;;;;;;-5.54;67.86;103263.63;84839;1324;22609;-76
2022/03/19 01:19:52;;;;;;;36.30;17.10;;;;;;;-5.54;67.97;103262.73;84868;1325;22708;-70
2022/03/19 01:21:49;;;;;;;26.60;16.20;;;;;;;-5.55;67.76;103264.85;84854;1324;24266;-70
2022/03/19 01:23:59;;;;;;;32.30;16.80;;;;;;;-5.55;67.77;103265.41;84872;1325;23393;-70
2022/03/19 01:26:08;;;;;;;39.40;17.60;;;;;;;-5.53;67.95;103269.08;84837;1325;22583;-70
2022/03/19 01:28:19;;;;;;;36.70;19.70;;;;;;;-5.53;67.91;103271.02;84133;1324;1002994;-69
2022/03/19 01:30:28;;;;;;;40.70;18.80;;;;;;;-5.52;67.75;103274.96;84826;1324;22584;-77
2022/03/19 01:32:36;;;;;;;43.70;22.10;;;;;;;-5.50;67.69;103275.48;84158;1324;1002975;-77
2022/03/19 01:34:45;;;;;;;55.80;22.10;;;;;;;-5.49;67.67;103272.52;84122;1324;1003916;-77
2022/03/19 01:36:57;;;;;;;46.50;20.00;;;;;;;-5.48;67.65;103275.25;84822;1324;26571;-76
2022/03/19 01:39:08;;;;;;;44.30;21.60;;;;;;;-5.50;67.49;103277.16;84855;1325;24235;-76
2022/03/19 01:41:17;;;;;;;50.00;20.90;;;;;;;-5.53;67.38;103276.63;84845;1326;24195;-77
2022/03/19 01:43:25;;;;;;;51.70;20.30;;;;;;;-5.59;67.33;103274.09;84873;1326;22590;-76
2022/03/19 01:45:33;;;;;;;45.80;20.00;;;;;;;-5.64;67.16;103271.98;84850;1324;22675;-70
2022/03/19 01:47:43;;;;;;;43.20;19.60;;;;;;;-5.69;67.15;103273.67;84147;1324;1003173;-69
2022/03/19 01:49:54;;;;;;;54.00;22.50;;;;;;;-5.73;67.06;103273.23;84857;1323;22603;-76
2022/03/19 01:52:02;;;;;;;38.10;19.30;;;;;;;-5.77;66.97;103269.88;84836;1324;22641;-77
2022/03/19 01:54:10;;;;;;;37.70;18.50;;;;;;;-5.82;67.16;103273.58;84866;1324;22603;-70
2022/03/19 01:56:19;;;;;;;43.50;20.90;;;;;;;-5.87;67.06;103273.38;84875;1321;22671;-69
2022/03/19 01:58:27;;;;;;;42.70;20.80;;;;;;;-5.92;67.15;103271.52;84840;1326;22809;-70
2022/03/19 02:00:38;;;;;;;46.20;21.90;;;;;;;-5.96;67.21;103272.39;84859;1324;22576;-70
2022/03/19 02:02:46;;;;;;;48.50;21.50;;;;;;;-5.99;67.25;103272.48;84840;1324;22718;-69
2022/03/19 02:04:55;;;;;;;51.10;21.50;;;;;;;-6.03;67.28;103272.89;84885;1324;22636;-69
2022/03/19 02:07:04;;;;;;;59.80;21.80;;;;;;;-6.05;67.32;103274.30;84830;1327;22605;-70
2022/03/19 02:09:12;;;;;;;58.70;19.70;;;;;;;-6.04;67.40;103272.68;84875;1324;23907;-70
2022/03/19 02:11:23;;;;;;;50.50;23.60;;;;;;;-6.01;67.42;103276.25;84074;1321;1003628;-69
2022/03/19 02:13:34;;;;;;;55.00;21.70;;;;;;;-6.00;67.40;103275.66;84839;1324;22806;-69
2022/03/19 02:15:42;;;;;;;57.30;22.20;;;;;;;-6.01;67.47;103274.04;84878;1319;22573;-71
2022/03/19 02:17:50;;;;;;;43.20;20.20;;;;;;;-6.02;67.46;103274.84;84857;1324;25320;-69
2022/03/19 02:20:03;;;;;;;47.10;20.00;;;;;;;-6.03;67.53;103276.30;84869;1324;22681;-75
2022/03/19 02:22:12;;;;;;;47.60;21.20;;;;;;;-6.04;67.50;103278.91;84853;1322;22789;-76
2022/03/19 02:26:49;;;;;;;45.60;21.10;;;;;;;-6.10;67.46;103272.21;84132;1324;1015952;-69
2022/03/19 02:28:57;;;;;;;51.40;22.00;;;;;;;-6.13;67.36;103272.11;84141;1324;1003478;-71
2022/03/19 02:31:05;;;;;;;47.70;21.80;;;;;;;-6.18;67.34;103270.36;84865;1324;22729;-75
2022/03/19 02:33:16;;;;;;;46.80;21.10;;;;;;;-6.23;67.39;103272.88;84139;1324;1003625;-75
2022/03/19 02:35:28;;;;;;;48.60;21.40;;;;;;;-6.27;67.40;103273.95;84857;1324;24525;-75
2022/03/19 02:37:43;;;;;;;39.60;20.30;;;;;;;-6.30;67.56;103277.27;84843;1328;25293;-76
2022/03/19 02:39:55;;;;;;;43.00;21.30;;;;;;;-6.33;67.64;103284.86;84880;1325;23088;-75
2022/03/19 02:42:06;;;;;;;46.50;20.30;;;;;;;-6.36;67.70;103283.80;84848;1324;22585;-76
2022/03/19 02:44:18;;;;;;;49.10;19.70;;;;;;;-6.37;67.80;103283.67;84873;1324;24276;-69
2022/03/19 02:46:42;;;;;;;45.30;19.20;;;;;;;-6.39;67.99;103289.31;84854;1325;25459;-69
2022/03/19 02:48:51;;;;;;;44.80;20.80;;;;;;;-6.38;68.13;103287.20;84848;1324;22607;-69
2022/03/19 02:51:00;;;;;;;37.60;21.20;;;;;;;-6.36;68.38;103288.17;84147;1328;1004262;-76
2022/03/19 02:53:10;;;;;;;54.90;24.60;;;;;;;-6.32;68.55;103291.56;84816;1326;25429;-75
2022/03/19 02:55:19;;;;;;;52.60;22.00;;;;;;;-6.29;68.40;103289.09;84164;1328;1003376;-75
2022/03/19 02:57:30;;;;;;;46.10;21.00;;;;;;;-6.28;68.24;103288.95;84842;1324;22575;-76
2022/03/19 02:59:41;;;;;;;47.60;21.10;;;;;;;-6.30;68.22;103291.73;84855;1325;22600;-69
2022/03/19 03:01:55;;;;;;;53.10;24.50;;;;;;;-6.33;68.15;103293.19;84127;1324;1003871;-69
2022/03/19 03:04:07;;;;;;;45.80;22.30;;;;;;;-6.36;68.11;103294.10;84051;1327;1003686;-76
2022/03/19 03:06:20;;;;;;;57.10;23.70;;;;;;;-6.41;68.28;103298.50;84130;1324;1003126;-75
2022/03/19 03:08:28;;;;;;;49.60;23.90;;;;;;;-6.44;68.16;103301.13;84146;1328;1002836;-75
2022/03/19 03:10:37;;;;;;;51.70;22.60;;;;;;;-6.47;68.19;103302.25;84893;1324;22592;-76
2022/03/19 03:12:45;;;;;;;59.50;24.90;;;;;;;-6.49;68.38;103305.86;84131;1328;1002994;-75
2022/03/19 03:14:54;;;;;;;61.00;26.20;;;;;;;-6.52;68.48;103302.40;84840;1324;22620;-69
2022/03/19 03:17:03;;;;;;;56.60;26.10;;;;;;;-6.56;68.56;103298.73;84834;1328;22577;-69
2022/03/19 03:19:16;;;;;;;56.30;25.00;;;;;;;-6.59;68.61;103296.25;84842;1324;22621;-74
2022/03/19 03:21:28;;;;;;;60.10;25.70;;;;;;;-6.63;68.77;103297.98;84847;1324;25387;-75
2022/03/19 03:23:37;;;;;;;66.90;24.70;;;;;;;-6.65;68.62;103302.35;84136;1325;1003433;-78
2022/03/19 03:25:45;;;;;;;61.10;25.10;;;;;;;-6.67;68.80;103302.06;84845;1324;24234;-69
2022/03/19 03:27:55;;;;;;;55.30;24.10;;;;;;;-6.67;68.85;103302.55;84847;1324;22917;-69
2022/03/19 03:30:04;;;;;;;55.60;24.10;;;;;;;-6.68;69.02;103304.39;84851;1324;22586;-69
2022/03/19 03:32:13;;;;;;;57.20;26.60;;;;;;;-6.67;69.02;103303.22;84857;1325;22876;-69
2022/03/19 03:34:22;;;;;;;56.30;28.80;;;;;;;-6.66;69.14;103306.40;84814;1324;25451;-76
2022/03/19 03:36:37;;;;;;;68.70;28.40;;;;;;;-6.64;69.10;103304.67;84835;1324;23892;-75
2022/03/19 03:38:45;;;;;;;69.20;28.30;;;;;;;-6.67;69.21;103305.63;84861;1328;23059;-76
2022/03/19 03:40:54;;;;;;;69.60;30.10;;;;;;;-6.69;69.08;103305.59;84856;1324;22616;-75
2022/03/19 03:43:03;;;;;;;67.60;29.60;;;;;;;-6.72;69.29;103309.65;84842;1325;22578;-76
2022/03/19 03:45:13;;;;;;;72.50;31.60;;;;;;;-6.74;69.24;103313.41;84858;1325;22590;-69
2022/03/19 03:47:21;;;;;;;70.60;30.00;;;;;;;-6.78;69.35;103313.25;84842;1327;22585;-69
2022/03/19 03:49:33;;;;;;;82.00;32.40;;;;;;;-6.80;69.72;103311.09;84805;1326;22609;-69
2022/03/19 03:51:44;;;;;;;84.60;34.90;;;;;;;-6.81;69.81;103315.91;84848;1324;25475;-70
2022/03/19 03:53:56;;;;;;;81.30;34.70;;;;;;;-6.82;69.88;103312.92;84821;1323;22860;-69
2022/03/19 03:56:05;;;;;;;82.70;35.40;;;;;;;-6.83;69.99;103312.50;84841;1325;22587;-75
2022/03/19 03:58:13;;;;;;;80.10;36.10;;;;;;;-6.83;70.35;103315.23;84159;1325;1002486;-75
2022/03/19 04:00:25;;;;;;;83.70;36.40;;;;;;;-6.81;70.14;103319.44;84855;1323;22944;-69
2022/03/19 04:02:35;;;;;;;81.80;36.70;;;;;;;-6.82;70.03;103316.33;84830;1325;22615;-69
2022/03/19 04:04:43;;;;;;;76.50;32.90;;;;;;;-6.83;69.93;103317.77;84764;1327;22557;-74
2022/03/19 04:06:52;;;;;;;83.20;37.70;;;;;;;-6.85;69.94;103318.32;84830;1324;22780;-74
2022/03/19 04:09:04;;;;;;;89.80;37.10;;;;;;;-6.85;69.78;103317.56;84817;1324;23980;-74
2022/03/19 04:11:16;;;;;;;84.70;36.10;;;;;;;-6.88;69.71;103317.68;84824;1325;22581;-74
2022/03/19 04:13:27;;;;;;;90.90;39.10;;;;;;;-6.92;69.80;103318.78;84828;1324;22722;-75
2022/03/19 04:15:36;;;;;;;91.20;40.50;;;;;;;-6.94;70.14;103316.20;84873;1324;22686;-70
2022/03/19 04:17:44;;;;;;;88.90;37.60;;;;;;;-6.97;70.07;103315.41;84824;1324;24215;-69
2022/03/19 04:19:53;;;;;;;91.40;38.00;;;;;;;-6.99;70.12;103315.10;84177;1325;1003091;-75
2022/03/19 04:22:02;;;;;;;95.90;37.80;;;;;;;-7.02;70.11;103314.55;84130;1324;1003233;-75
2022/03/19 04:24:16;;;;;;;95.20;41.60;;;;;;;-7.04;70.18;103315.02;84164;1324;1003820;-69
2022/03/19 04:26:26;;;;;;;107.90;43.30;;;;;;;-7.08;70.18;103315.44;84007;1327;1003725;-69
2022/03/19 04:28:33;;;;;;;;;;;;;;;-7.10;70.29;103314.24;84737;1331;22577;-69
2022/03/19 04:30:43;;;;;;;95.40;40.50;;;;;;;-7.13;70.43;103316.05;84165;1324;1003706;-69
2022/03/19 04:32:56;;;;;;;89.30;40.90;;;;;;;-7.14;70.66;103317.30;84838;1324;23882;-69
2022/03/19 04:37:35;;;;;;;89.40;42.20;;;;;;;-7.15;71.08;103320.46;84859;1324;22872;-75
2022/03/19 04:39:44;;;;;;;100.10;42.80;;;;;;;-7.13;71.18;103318.61;84831;1328;25312;-74
2022/03/19 04:41:57;;;;;;;103.90;44.50;;;;;;;-7.08;71.25;103320.85;84121;1327;1003009;-75
2022/03/19 04:44:07;;;;;;;106.60;47.80;;;;;;;-7.04;71.27;103319.69;84831;1324;22762;-74
2022/03/19 04:46:16;;;;;;;116.00;48.10;;;;;;;-7.01;71.30;103319.87;84845;1328;25257;-75
2022/03/19 04:48:30;;;;;;;115.30;46.80;;;;;;;-6.98;71.29;103324.91;84779;1327;23950;-75
2022/03/19 04:50:39;;;;;;;98.80;48.50;;;;;;;-6.96;71.40;103323.14;84868;1324;22636;-69
2022/03/19 04:52:48;;;;;;;116.10;49.30;;;;;;;-6.94;71.45;103323.33;84854;1325;22625;-69
2022/03/19 04:55:00;;;;;;;112.40;50.40;;;;;;;-6.92;71.38;103322.79;84873;1327;22955;-69
2022/03/19 04:57:09;;;;;;;114.40;47.10;;;;;;;-6.92;71.34;103324.84;84823;1324;22656;-69
2022/03/19 04:59:19;;;;;;;117.40;46.00;;;;;;;-6.92;71.32;103328.21;84830;1322;24270;-70
2022/03/19 05:01:28;;;;;;;114.70;47.50;;;;;;;-6.92;71.28;103325.00;84771;1322;22587;-69
2022/03/19 05:03:40;;;;;;;101.90;43.90;;;;;;;-6.94;71.26;103329.80;84794;1326;22710;-69
2022/03/19 05:05:49;;;;;;;107.90;46.90;;;;;;;-6.94;71.43;103326.71;84792;1327;25300;-70
2022/03/19 05:07:58;;;;;;;106.70;44.40;;;;;;;-6.94;71.51;103329.29;84791;1325;22872;-69
2022/03/19 05:12:37;;;;;;;97.70;43.90;;;;;;;-6.87;71.57;103338.30;84782;1326;24306;-76
2022/03/19 05:14:46;;;;;;;104.40;42.20;;;;;;;-6.81;71.64;103336.46;84105;1326;1003863;-75
2022/03/19 05:16:57;;;;;;;107.50;45.20;;;;;;;-6.72;71.55;103339.69;84798;1327;22769;-75
2022/03/19 05:19:06;;;;;;;100.40;42.10;;;;;;;-6.66;71.54;103339.02;84783;1329;22870;-74
2022/03/19 05:21:14;;;;;;;98.20;42.60;;;;;;;-6.61;71.58;103342.60;84774;1326;22727;-75
2022/03/19 05:23:23;;;;;;;91.80;42.00;;;;;;;-6.54;71.52;103345.70;84788;1319;22616;-75
2022/03/19 05:25:31;;;;;;;92.30;43.50;;;;;;;-6.46;71.64;103346.10;84796;1327;22701;-70
2022/03/19 05:27:40;;;;;;;93.50;43.40;;;;;;;-6.41;71.70;103346.58;84799;1323;22593;-69
2022/03/19 05:29:52;;;;;;;87.60;41.10;;;;;;;-6.34;71.61;103347.61;84058;1327;1003408;-76
2022/03/19 05:32:01;;;;;;;101.40;44.70;;;;;;;-6.26;71.70;103352.98;84802;1326;22851;-76
2022/03/19 05:34:31;;;;;;;87.20;41.60;;;;;;;-6.19;71.69;103353.86;84093;1327;1003014;-70
2022/03/19 05:36:42;;;;;;;;;;;;;;;-6.13;71.76;103353.16;84799;1326;24099;-70
2022/03/19 05:38:51;;;;;;;98.20;42.50;;;;;;;-6.08;71.75;103348.61;84801;1326;22631;-69
2022/03/19 05:40:59;;;;;;;101.00;44.80;;;;;;;-5.99;71.88;103353.27;84785;1326;22730;-76
2022/03/19 05:43:08;;;;;;;107.60;46.30;;;;;;;-5.88;71.87;103350.31;84783;1326;22578;-77
2022/03/19 05:45:19;;;;;;;97.60;43.70;;;;;;;-5.75;71.95;103353.31;84758;1318;22612;-69
2022/03/19 05:47:27;;;;;;;95.90;44.60;;;;;;;-5.62;72.03;103353.14;84802;1326;25336;-69
2022/03/19 05:49:35;;;;;;;105.20;46.00;;;;;;;-5.49;71.86;103353.82;84798;1322;22917;-70
2022/03/19 05:51:45;;;;;;;114.80;51.50;;;;;;;-5.24;71.94;103356.85;84798;1328;22791;-69
2022/03/19 05:53:53;;;;;;;116.70;54.10;;;;;;;-4.62;72.30;103356.57;84780;1329;22583;-69
2022/03/19 05:56:05;;;;;;;122.00;53.90;;;;;;;-3.64;73.45;103358.29;84772;1327;22603;-76
2022/03/19 05:58:13;;;;;;;129.60;58.30;;;;;;;-2.39;73.11;103356.41;84812;1328;24105;-77
2022/03/19 06:00:22;;;;;;;118.30;56.90;;;;;;;-1.09;72.67;103349.34;84792;1323;25640;-77
2022/03/19 06:02:38;;;;;;;139.60;60.50;;;;;;;0.22;70.57;103347.09;84787;1323;23914;-76
2022/03/19 06:04:46;;;;;;;118.20;56.90;;;;;;;1.60;69.58;103337.91;84786;1327;22887;-77
2022/03/19 06:06:57;;;;;;;145.30;62.10;;;;;;;2.92;65.95;103335.06;84771;1326;25288;-78
2022/03/19 06:09:07;;;;;;;134.70;62.30;;;;;;;4.20;61.57;103338.08;84782;1326;24145;-77
2022/03/19 06:11:14;;;;;;;117.10;61.20;;;;;;;5.32;57.08;103337.19;84778;1327;24264;-79
2022/03/19 06:13:21;;;;;;;132.10;60.10;;;;;;;6.23;54.04;103336.77;84780;1324;22603;-79
2022/03/19 06:15:28;;;;;;;143.90;65.20;;;;;;;7.05;50.99;103335.56;84775;1327;22586;-79
2022/03/19 06:17:35;;;;;;;141.50;61.50;;;;;;;7.75;48.04;103337.51;84767;1321;22821;-78
2022/03/19 06:19:42;;;;;;;175.50;63.30;;;;;;;8.48;45.72;103339.69;84775;1326;23892;-77
2022/03/19 06:21:49;;;;;;;197.10;65.00;;;;;;;9.10;43.35;103339.88;84778;1326;22583;-77
2022/03/19 06:23:59;;;;;;;172.50;66.00;;;;;;;9.41;42.20;103340.16;84826;1327;22681;-76
2022/03/19 06:26:09;;;;;;;173.90;65.60;;;;;;;9.38;41.51;103341.50;84787;1329;22582;-78
2022/03/19 06:28:15;;;;;;;154.90;64.10;;;;;;;9.36;40.84;103344.61;84789;1327;22699;-78
2022/03/19 06:30:23;;;;;;;154.20;63.70;;;;;;;9.39;39.51;103350.06;84778;1326;22583;-80
2022/03/19 06:32:30;;;;;;;137.90;61.50;;;;;;;9.50;38.81;103358.60;84764;1329;22586;-80
2022/03/19 06:34:37;;;;;;;143.60;63.00;;;;;;;9.69;39.06;103359.02;84800;1326;22603;-71
2022/03/19 06:39:09;;;;;;;131.90;61.60;;;;;;;9.25;38.82;103365.52;84777;1326;22885;-78
2022/03/19 06:41:16;;;;;;;134.30;61.50;;;;;;;9.23;38.63;103368.30;84796;1327;22607;-79
2022/03/19 06:43:23;;;;;;;145.30;62.00;;;;;;;9.57;38.57;103366.01;84776;1326;23927;-77
2022/03/19 06:45:33;;;;;;;122.50;61.60;;;;;;;9.60;37.86;103366.58;84742;1327;22588;-71
2022/03/19 06:47:43;;;;;;;128.50;61.60;;;;;;;9.98;38.03;103370.90;84771;1326;22751;-70
2022/03/19 06:49:54;;;;;;;121.50;59.70;;;;;;;10.52;37.07;103370.67;84796;1327;22803;-69
2022/03/19 06:52:05;;;;;;;106.00;57.10;;;;;;;10.94;36.69;103374.39;84783;1326;22589;-70
2022/03/19 06:54:16;;;;;;;102.60;55.00;;;;;;;11.16;35.73;103376.14;84789;1326;24256;-70
2022/03/19 06:56:24;;;;;;;;;;;;;;;11.59;35.44;103375.04;84780;1327;22557;-69
2022/03/19 06:58:36;;;;;;;75.30;44.10;;;;;;;11.99;33.22;103375.27;84777;1327;22827;-70
2022/03/19 07:00:47;;;;;;;84.00;45.70;;;;;;;12.07;31.31;103372.33;84758;1326;22889;-71
2022/03/19 07:02:56;;;;;;;76.40;44.40;;;;;;;12.16;32.16;103374.80;84782;1323;22595;-70
2022/03/19 07:05:06;;;;;;;69.50;38.50;;;;;;;12.68;30.91;103372.64;84786;1323;23949;-69
2022/03/19 07:07:17;;;;;;;51.40;32.60;;;;;;;13.18;30.65;103372.30;84785;1325;22746;-70
2022/03/19 07:09:30;;;;;;;47.20;29.70;;;;;;;13.43;28.75;103368.98;84790;1326;25496;-78
2022/03/19 07:11:43;;;;;;;44.60;30.10;;;;;;;13.78;27.80;103372.56;84811;1325;23949;-76
2022/03/19 07:13:51;;;;;;;47.60;31.70;;;;;;;13.92;27.20;103371.44;84794;1327;22597;-76
2022/03/19 07:16:06;;;;;;;48.80;29.20;;;;;;;13.91;26.93;103373.39;84740;1327;22589;-69
2022/03/19 07:18:14;;;;;;;42.50;27.80;;;;;;;13.98;27.60;103372.48;84633;1327;22609;-69
2022/03/19 07:20:22;;;;;;;40.30;26.50;;;;;;;13.94;26.86;103377.05;84778;1326;24257;-69
2022/03/19 07:25:09;;;;;;;43.90;29.00;;;;;;;14.23;25.58;103382.88;81972;1371;545809;-75
2022/03/19 07:27:16;;;;;;;50.40;30.40;;;;;;;14.61;25.79;103380.58;84604;1331;26661;-74
2022/03/19 07:29:23;;;;;;;47.00;28.90;;;;;;;15.03;25.17;103379.57;84597;1331;24235;-70
2022/03/19 07:31:30;;;;;;;43.30;27.20;;;;;;;15.50;24.80;103379.66;84559;1330;23950;-69
2022/03/19 07:33:40;;;;;;;43.70;27.10;;;;;;;15.87;24.23;103381.89;84556;1330;22587;-69
2022/03/19 07:35:47;;;;;;;49.70;27.10;;;;;;;16.13;23.02;103384.04;84553;1334;22584;-70
2022/03/19 07:37:57;;;;;;;44.90;25.90;;;;;;;16.28;22.75;103386.82;84556;1332;22612;-70
2022/03/19 07:40:10;;;;;;;38.60;26.00;;;;;;;16.53;23.00;103385.59;84509;1329;23975;-69
2022/03/19 07:42:22;;;;;;;37.20;25.10;;;;;;;16.96;21.92;103384.40;84580;1330;22589;-70
2022/03/19 07:44:36;;;;;;;36.80;25.20;;;;;;;17.21;21.70;103382.04;84599;1327;22710;-76
2022/03/19 07:46:48;;;;;;;55.70;29.20;;;;;;;17.63;21.50;103381.25;84594;1331;22590;-75
2022/03/19 07:48:57;;;;;;;69.20;34.70;;;;;;;18.13;21.52;103383.23;84644;1331;22912;-74
2022/03/19 07:51:09;;;;;;;84.40;35.80;;;;;;;18.42;20.99;103386.64;84570;1329;22738;-77
2022/03/19 07:53:22;;;;;;;55.70;35.00;;;;;;;18.52;20.58;103389.61;84589;1330;23044;-76
2022/03/19 07:55:32;;;;;;;46.30;30.80;;;;;;;18.75;20.67;103386.42;84569;1332;22635;-76
2022/03/19 07:57:40;;;;;;;56.70;33.00;;;;;;;19.06;20.14;103387.27;84568;1329;22616;-75
2022/03/19 07:59:48;;;;;;;69.80;36.60;;;;;;;19.57;20.08;103389.26;84610;1328;22583;-76
2022/03/19 08:02:00;;;;;;;57.50;35.10;;;;;;;19.98;19.57;103390.94;84594;1330;22612;-74
2022/03/19 08:04:08;;;;;;;44.50;26.90;;;;;;;20.17;18.94;103390.58;84580;1331;25337;-76
2022/03/19 08:06:15;;;;;;;42.30;27.50;;;;;;;20.27;17.86;103394.30;84566;1331;22709;-74
2022/03/19 08:08:22;;;;;;;41.10;26.50;;;;;;;20.41;17.86;103390.70;84548;1333;24241;-77
2022/03/19 08:10:30;;;;;;;44.60;27.00;;;;;;;20.40;17.12;103394.27;84615;1326;23751;-76
2022/03/19 08:12:36;;;;;;;45.60;28.90;;;;;;;20.48;17.78;103395.12;84551;1334;22647;-77
2022/03/19 08:14:43;;;;;;;34.00;25.90;;;;;;;20.52;17.26;103396.59;84609;1329;24257;-74
2022/03/19 08:16:49;;;;;;;42.30;27.80;;;;;;;20.60;17.56;103400.23;84539;1332;25321;-77
2022/03/19 08:18:56;;;;;;;44.00;27.10;;;;;;;20.96;17.18;103399.93;84585;1328;24236;-72
2022/03/19 08:21:06;;;;;;;37.80;26.50;;;;;;;21.23;16.62;103405.59;84582;1329;22905;-70
2022/03/19 08:23:15;;;;;;;38.90;26.70;;;;;;;21.29;16.13;103405.20;84567;1332;22590;-70
2022/03/19 08:25:30;;;;;;;40.40;26.70;;;;;;;21.27;16.45;103405.27;84571;1333;22600;-70
2022/03/19 08:27:38;;;;;;;40.00;28.30;;;;;;;21.45;16.15;103399.50;84576;1330;22605;-71
2022/03/19 08:29:46;;;;;;;39.70;25.80;;;;;;;21.41;15.95;103399.48;84593;1333;23982;-71
2022/03/19 08:31:54;;;;;;;44.30;30.60;;;;;;;21.39;15.88;103405.60;84567;1333;23988;-70
2022/03/19 08:34:03;;;;;;;52.60;35.00;;;;;;;21.39;16.00;103402.39;84571;1331;22670;-70
2022/03/19 08:36:14;;;;;;;41.90;29.20;;;;;;;21.33;15.81;103406.33;84604;1330;25445;-69
2022/03/19 08:40:48;;;;;;;41.70;29.00;;;;;;;21.43;16.06;103406.88;84615;1330;22623;-77
2022/03/19 08:43:00;;;;;;;34.50;25.00;;;;;;;21.43;15.55;103401.89;84588;1330;25307;-78
2022/03/19 08:45:12;;;;;;;43.80;28.40;;;;;;;21.54;15.65;103404.34;84613;1330;22596;-77
2022/03/19 08:47:23;;;;;;;42.00;28.40;;;;;;;21.78;15.30;103405.03;84542;1330;22741;-77
2022/03/19 08:49:36;;;;;;;35.50;26.50;;;;;;;21.98;15.24;103400.59;84637;1330;22595;-69
2022/03/19 08:51:48;;;;;;;36.60;27.20;;;;;;;22.04;14.98;103398.18;84530;1333;22717;-71
2022/03/19 08:53:59;;;;;;;45.20;30.00;;;;;;;21.80;14.49;103399.13;84552;1330;24241;-74
2022/03/19 08:56:08;;;;;;;42.10;27.20;;;;;;;21.58;15.36;103396.73;84567;1330;25311;-75
2022/03/19 08:58:18;;;;;;;34.20;24.40;;;;;;;21.79;15.31;103400.94;84578;1328;24200;-75
2022/03/19 09:00:32;;;;;;;39.60;26.80;;;;;;;22.07;15.08;103401.65;84622;1328;22589;-70
2022/03/19 09:02:41;;;;;;;27.80;21.10;;;;;;;22.23;14.39;103401.77;84561;1330;24594;-70
2022/03/19 09:04:49;;;;;;;28.50;21.90;;;;;;;22.13;14.22;103402.50;84584;1330;22594;-75
2022/03/19 09:06:58;;;;;;;30.00;22.00;;;;;;;22.03;14.23;103402.52;84589;1330;22619;-77
2022/03/19 09:09:14;;;;;;;33.60;21.50;;;;;;;21.77;14.61;103401.36;84580;1330;24427;-76
2022/03/19 09:11:26;;;;;;;36.20;24.30;;;;;;;21.70;14.62;103400.38;84559;1331;26074;-75
2022/03/19 09:13:36;;;;;;;26.00;19.20;;;;;;;21.81;14.47;103404.23;84589;1331;22766;-76
2022/03/19 09:15:44;;;;;;;21.40;15.00;;;;;;;21.72;13.95;103404.20;84575;1326;22782;-70
2022/03/19 09:17:54;;;;;;;21.80;13.80;;;;;;;21.57;13.92;103407.23;84558;1331;22615;-70
2022/03/19 09:20:02;;;;;;;18.20;14.70;;;;;;;21.54;13.52;103408.40;84584;1330;22764;-70
2022/03/19 09:22:15;;;;;;;21.10;16.10;;;;;;;21.33;13.82;103408.42;84571;1331;22629;-70
2022/03/19 09:24:26;;;;;;;16.60;12.60;;;;;;;21.23;14.63;103406.28;84561;1330;22606;-70
2022/03/19 09:26:36;;;;;;;18.50;13.10;;;;;;;21.50;14.25;103403.41;84559;1330;22583;-70
2022/03/19 09:28:43;;;;;;;;;;;;;;;21.53;13.59;103403.83;84571;1330;23997;-70
2022/03/19 09:30:52;;;;;;;14.10;12.00;;;;;;;21.39;13.83;103402.91;84579;1325;22950;-75
2022/03/19 09:33:03;;;;;;;11.00;9.70;;;;;;;21.37;14.02;103407.08;84551;1331;24248;-76
2022/03/19 09:35:14;;;;;;;10.00;9.00;;;;;;;21.26;12.80;103407.80;84607;1333;25295;-74
2022/03/19 09:37:29;;;;;;;11.40;9.40;;;;;;;20.90;13.26;103409.02;84591;1330;24181;-75
2022/03/19 09:39:41;;;;;;;10.70;8.40;;;;;;;20.91;13.77;103411.83;84566;1331;22604;-74
2022/03/19 09:41:50;;;;;;;11.50;10.20;;;;;;;21.07;13.36;103411.27;84561;1330;25303;-75
2022/03/19 09:44:00;;;;;;;13.00;8.80;;;;;;;21.03;13.63;103404.84;84589;1331;22953;-70
2022/03/19 09:46:08;;;;;;;;;;;;;;;21.11;13.85;103404.55;84572;1330;22879;-69
2022/03/19 09:48:20;;;;;;;18.70;15.50;;;;;;;21.08;13.71;103404.66;84562;1334;25539;-70
2022/03/19 09:50:29;;;;;;;16.80;12.30;;;;;;;21.12;13.41;103411.27;84725;1327;22600;-74
2022/03/19 09:52:41;;;;;;;10.30;9.20;;;;;;;21.06;13.51;103406.17;84737;1327;22887;-75
2022/03/19 09:54:50;;;;;;;11.30;9.50;;;;;;;20.94;13.31;103410.11;84722;1327;25463;-75
2022/03/19 09:56:59;;;;;;;9.30;7.20;;;;;;;20.71;13.39;103414.58;84721;1325;22585;-76
2022/03/19 09:59:10;;;;;;;8.90;8.00;;;;;;;20.12;13.50;103412.86;84794;1327;22557;-70
2022/03/19 10:01:20;;;;;;;11.10;7.50;;;;;;;19.48;13.84;103408.99;84700;1327;22581;-69
2022/03/19 10:03:31;;;;;;;9.30;8.00;;;;;;;18.87;14.49;103406.66;84774;1322;22592;-71
2022/03/19 10:08:39;;;;;;;12.70;8.10;;;;;;;17.79;15.09;103409.19;84462;1334;22676;-75